sensor_id;sensor_type;location;lat;lon;timestamp;P1;durP1;ratioP1;P2;durP2;ratioP2
22026;SDS011;11177;50.966;10.070;2024-01-06T00:01:14;10.50;;;3.42;;
22026;SDS011;11177;50.966;10.070;2024-01-06T00:03:42;7.28;;;3.47;;
22026;SDS011;11177;50.966;10.070;2024-01-06T00:06:13;9.95;;;3.33;;
22026;SDS011;11177;50.966;10.070;2024-01-06T00:08:41;6.95;;;1.90;;
22026;SDS011;11177;50.966;10.070;2024-01-06T00:11:09;5.18;;;2.10;;
22026;SDS011;11177;50.966;10.070;2024-01-06T00:13:36;4.03;;;2.00;;
22026;SDS011;11177;50.966;10.070;2024-01-06T00:16:04;5.75;;;1.80;;
22026;SDS011;11177;50.966;10.070;2024-01-06T00:18:32;5.07;;;2.05;;
22026;SDS011;11177;50.966;10.070;2024-01-06T00:20:59;5.13;;;1.92;;
22026;SDS011;11177;50.966;10.070;2024-01-06T00:23:27;9.50;;;2.67;;
22026;SDS011;11177;50.966;10.070;2024-01-06T00:25:57;11.80;;;4.07;;
22026;SDS011;11177;50.966;10.070;2024-01-06T00:28:40;8.52;;;4.57;;
22026;SDS011;11177;50.966;10.070;2024-01-06T00:31:08;14.43;;;5.80;;
22026;SDS011;11177;50.966;10.070;2024-01-06T00:33:36;4.82;;;3.42;;
22026;SDS011;11177;50.966;10.070;2024-01-06T00:36:07;6.40;;;2.60;;
22026;SDS011;11177;50.966;10.070;2024-01-06T00:38:37;5.20;;;2.30;;
22026;SDS011;11177;50.966;10.070;2024-01-06T00:41:04;6.35;;;3.03;;
22026;SDS011;11177;50.966;10.070;2024-01-06T00:43:31;7.80;;;3.05;;
22026;SDS011;11177;50.966;10.070;2024-01-06T00:45:59;7.68;;;2.90;;
22026;SDS011;11177;50.966;10.070;2024-01-06T00:48:26;8.07;;;2.40;;
22026;SDS011;11177;50.966;10.070;2024-01-06T00:50:54;3.95;;;2.13;;
22026;SDS011;11177;50.966;10.070;2024-01-06T00:53:21;7.65;;;2.30;;
22026;SDS011;11177;50.966;10.070;2024-01-06T00:55:49;5.25;;;1.90;;
22026;SDS011;11177;50.966;10.070;2024-01-06T00:58:16;5.88;;;1.98;;
22026;SDS011;11177;50.966;10.070;2024-01-06T01:00:46;3.90;;;2.13;;
22026;SDS011;11177;50.966;10.070;2024-01-06T01:03:14;5.72;;;2.10;;
22026;SDS011;11177;50.966;10.070;2024-01-06T01:05:42;7.93;;;3.63;;
22026;SDS011;11177;50.966;10.070;2024-01-06T01:08:09;6.15;;;2.80;;
22026;SDS011;11177;50.966;10.070;2024-01-06T01:10:37;10.40;;;3.17;;
22026;SDS011;11177;50.966;10.070;2024-01-06T01:13:04;9.27;;;2.83;;
22026;SDS011;11177;50.966;10.070;2024-01-06T01:15:33;6.18;;;2.22;;
22026;SDS011;11177;50.966;10.070;2024-01-06T01:18:01;2.38;;;1.70;;
22026;SDS011;11177;50.966;10.070;2024-01-06T01:20:29;4.93;;;2.08;;
22026;SDS011;11177;50.966;10.070;2024-01-06T01:22:56;6.05;;;1.95;;
22026;SDS011;11177;50.966;10.070;2024-01-06T01:25:24;2.83;;;1.92;;
22026;SDS011;11177;50.966;10.070;2024-01-06T01:27:51;7.13;;;1.80;;
22026;SDS011;11177;50.966;10.070;2024-01-06T01:30:19;8.40;;;1.80;;
22026;SDS011;11177;50.966;10.070;2024-01-06T01:32:47;3.55;;;1.73;;
22026;SDS011;11177;50.966;10.070;2024-01-06T01:35:14;4.45;;;1.88;;
22026;SDS011;11177;50.966;10.070;2024-01-06T01:37:41;6.55;;;1.83;;
22026;SDS011;11177;50.966;10.070;2024-01-06T01:40:09;4.32;;;1.70;;
22026;SDS011;11177;50.966;10.070;2024-01-06T01:42:36;4.38;;;1.80;;
22026;SDS011;11177;50.966;10.070;2024-01-06T01:45:04;7.57;;;2.08;;
22026;SDS011;11177;50.966;10.070;2024-01-06T01:47:32;6.13;;;1.75;;
22026;SDS011;11177;50.966;10.070;2024-01-06T01:50:00;3.72;;;1.77;;
22026;SDS011;11177;50.966;10.070;2024-01-06T01:52:28;4.13;;;1.77;;
22026;SDS011;11177;50.966;10.070;2024-01-06T01:54:55;8.85;;;2.13;;
22026;SDS011;11177;50.966;10.070;2024-01-06T01:57:24;3.05;;;1.80;;
22026;SDS011;11177;50.966;10.070;2024-01-06T01:59:52;4.30;;;2.20;;
22026;SDS011;11177;50.966;10.070;2024-01-06T02:02:21;5.88;;;1.98;;
22026;SDS011;11177;50.966;10.070;2024-01-06T02:04:49;6.53;;;2.10;;
22026;SDS011;11177;50.966;10.070;2024-01-06T02:07:16;5.95;;;2.13;;
22026;SDS011;11177;50.966;10.070;2024-01-06T02:09:43;3.83;;;1.75;;
22026;SDS011;11177;50.966;10.070;2024-01-06T02:12:11;7.05;;;2.38;;
22026;SDS011;11177;50.966;10.070;2024-01-06T02:14:38;5.28;;;2.13;;
22026;SDS011;11177;50.966;10.070;2024-01-06T02:17:06;7.47;;;2.03;;
22026;SDS011;11177;50.966;10.070;2024-01-06T02:19:34;4.22;;;1.90;;
22026;SDS011;11177;50.966;10.070;2024-01-06T02:22:02;3.10;;;2.05;;
22026;SDS011;11177;50.966;10.070;2024-01-06T02:24:29;5.43;;;2.03;;
22026;SDS011;11177;50.966;10.070;2024-01-06T02:26:56;4.80;;;1.98;;
22026;SDS011;11177;50.966;10.070;2024-01-06T02:29:24;6.40;;;2.50;;
22026;SDS011;11177;50.966;10.070;2024-01-06T02:31:55;7.25;;;2.08;;
22026;SDS011;11177;50.966;10.070;2024-01-06T02:34:22;8.45;;;2.65;;
22026;SDS011;11177;50.966;10.070;2024-01-06T02:36:49;4.35;;;2.20;;
22026;SDS011;11177;50.966;10.070;2024-01-06T02:39:16;6.18;;;2.15;;
22026;SDS011;11177;50.966;10.070;2024-01-06T02:41:44;4.50;;;2.08;;
22026;SDS011;11177;50.966;10.070;2024-01-06T02:44:12;5.20;;;1.88;;
22026;SDS011;11177;50.966;10.070;2024-01-06T02:46:40;5.97;;;2.30;;
22026;SDS011;11177;50.966;10.070;2024-01-06T02:49:08;5.53;;;2.03;;
22026;SDS011;11177;50.966;10.070;2024-01-06T02:51:36;5.13;;;2.13;;
22026;SDS011;11177;50.966;10.070;2024-01-06T02:54:03;6.53;;;2.05;;
22026;SDS011;11177;50.966;10.070;2024-01-06T02:56:31;3.78;;;2.13;;
22026;SDS011;11177;50.966;10.070;2024-01-06T02:58:58;3.42;;;1.85;;
22026;SDS011;11177;50.966;10.070;2024-01-06T03:01:26;6.68;;;2.20;;
22026;SDS011;11177;50.966;10.070;2024-01-06T03:03:53;4.72;;;1.75;;
22026;SDS011;11177;50.966;10.070;2024-01-06T03:06:20;4.07;;;1.73;;
22026;SDS011;11177;50.966;10.070;2024-01-06T03:08:47;8.55;;;2.15;;
22026;SDS011;11177;50.966;10.070;2024-01-06T03:11:15;3.00;;;1.63;;
22026;SDS011;11177;50.966;10.070;2024-01-06T03:13:42;10.63;;;5.80;;
22026;SDS011;11177;50.966;10.070;2024-01-06T03:16:11;10.52;;;6.03;;
22026;SDS011;11177;50.966;10.070;2024-01-06T03:18:38;12.55;;;6.95;;
22026;SDS011;11177;50.966;10.070;2024-01-06T03:21:16;17.27;;;9.18;;
22026;SDS011;11177;50.966;10.070;2024-01-06T03:23:44;21.20;;;11.70;;
22026;SDS011;11177;50.966;10.070;2024-01-06T03:26:11;17.08;;;11.25;;
22026;SDS011;11177;50.966;10.070;2024-01-06T03:28:39;22.27;;;10.75;;
22026;SDS011;11177;50.966;10.070;2024-01-06T03:31:06;8.93;;;4.82;;
22026;SDS011;11177;50.966;10.070;2024-01-06T03:33:33;12.90;;;8.32;;
22026;SDS011;11177;50.966;10.070;2024-01-06T03:36:05;19.05;;;10.15;;
22026;SDS011;11177;50.966;10.070;2024-01-06T03:38:33;16.00;;;7.97;;
22026;SDS011;11177;50.966;10.070;2024-01-06T03:41:04;12.20;;;7.65;;
22026;SDS011;11177;50.966;10.070;2024-01-06T03:43:31;8.98;;;4.40;;
22026;SDS011;11177;50.966;10.070;2024-01-06T03:46:02;11.05;;;4.15;;
22026;SDS011;11177;50.966;10.070;2024-01-06T03:48:30;9.25;;;3.70;;
22026;SDS011;11177;50.966;10.070;2024-01-06T03:50:59;9.65;;;4.50;;
22026;SDS011;11177;50.966;10.070;2024-01-06T03:53:27;6.00;;;3.30;;
22026;SDS011;11177;50.966;10.070;2024-01-06T03:56:03;9.30;;;4.20;;
22026;SDS011;11177;50.966;10.070;2024-01-06T03:58:30;7.82;;;4.28;;
22026;SDS011;11177;50.966;10.070;2024-01-06T04:00:58;8.25;;;3.35;;
22026;SDS011;11177;50.966;10.070;2024-01-06T04:03:28;10.15;;;4.60;;
22026;SDS011;11177;50.966;10.070;2024-01-06T04:05:56;12.23;;;5.45;;
22026;SDS011;11177;50.966;10.070;2024-01-06T04:08:23;11.90;;;4.85;;
22026;SDS011;11177;50.966;10.070;2024-01-06T04:10:54;10.65;;;4.35;;
22026;SDS011;11177;50.966;10.070;2024-01-06T04:13:36;7.25;;;3.30;;
22026;SDS011;11177;50.966;10.070;2024-01-06T04:16:03;6.72;;;3.35;;
22026;SDS011;11177;50.966;10.070;2024-01-06T04:18:33;9.13;;;3.50;;
22026;SDS011;11177;50.966;10.070;2024-01-06T04:21:01;9.73;;;4.75;;
22026;SDS011;11177;50.966;10.070;2024-01-06T04:23:29;8.00;;;4.18;;
22026;SDS011;11177;50.966;10.070;2024-01-06T04:25:57;8.32;;;3.30;;
22026;SDS011;11177;50.966;10.070;2024-01-06T04:28:24;7.38;;;2.47;;
22026;SDS011;11177;50.966;10.070;2024-01-06T04:30:51;6.57;;;2.05;;
22026;SDS011;11177;50.966;10.070;2024-01-06T04:33:18;9.45;;;2.70;;
22026;SDS011;11177;50.966;10.070;2024-01-06T04:35:46;11.80;;;3.03;;
22026;SDS011;11177;50.966;10.070;2024-01-06T04:38:14;9.43;;;4.45;;
22026;SDS011;11177;50.966;10.070;2024-01-06T04:40:41;10.05;;;5.28;;
22026;SDS011;11177;50.966;10.070;2024-01-06T04:43:08;13.05;;;5.40;;
22026;SDS011;11177;50.966;10.070;2024-01-06T04:45:38;10.57;;;5.15;;
22026;SDS011;11177;50.966;10.070;2024-01-06T04:48:05;9.45;;;5.93;;
22026;SDS011;11177;50.966;10.070;2024-01-06T04:50:33;11.85;;;6.00;;
22026;SDS011;11177;50.966;10.070;2024-01-06T04:53:00;9.85;;;5.50;;
22026;SDS011;11177;50.966;10.070;2024-01-06T04:55:30;7.18;;;4.55;;
22026;SDS011;11177;50.966;10.070;2024-01-06T04:57:57;10.10;;;4.70;;
22026;SDS011;11177;50.966;10.070;2024-01-06T05:00:24;10.90;;;4.60;;
22026;SDS011;11177;50.966;10.070;2024-01-06T05:02:53;11.00;;;5.90;;
22026;SDS011;11177;50.966;10.070;2024-01-06T05:05:20;12.30;;;6.30;;
22026;SDS011;11177;50.966;10.070;2024-01-06T05:07:47;11.35;;;5.13;;
22026;SDS011;11177;50.966;10.070;2024-01-06T05:10:17;8.63;;;4.20;;
22026;SDS011;11177;50.966;10.070;2024-01-06T05:12:44;9.93;;;3.95;;
22026;SDS011;11177;50.966;10.070;2024-01-06T05:15:11;5.72;;;3.92;;
22026;SDS011;11177;50.966;10.070;2024-01-06T05:17:41;8.15;;;4.18;;
22026;SDS011;11177;50.966;10.070;2024-01-06T05:20:09;12.05;;;4.60;;
22026;SDS011;11177;50.966;10.070;2024-01-06T05:22:37;9.43;;;4.25;;
22026;SDS011;11177;50.966;10.070;2024-01-06T05:25:05;9.73;;;4.75;;
22026;SDS011;11177;50.966;10.070;2024-01-06T05:27:32;8.20;;;4.00;;
22026;SDS011;11177;50.966;10.070;2024-01-06T05:29:59;7.90;;;4.28;;
22026;SDS011;11177;50.966;10.070;2024-01-06T05:32:27;9.93;;;4.93;;
22026;SDS011;11177;50.966;10.070;2024-01-06T05:34:55;11.45;;;4.90;;
22026;SDS011;11177;50.966;10.070;2024-01-06T05:37:22;10.77;;;4.75;;
22026;SDS011;11177;50.966;10.070;2024-01-06T05:39:50;8.95;;;4.38;;
22026;SDS011;11177;50.966;10.070;2024-01-06T05:42:17;10.68;;;4.70;;
22026;SDS011;11177;50.966;10.070;2024-01-06T05:44:44;7.72;;;4.10;;
22026;SDS011;11177;50.966;10.070;2024-01-06T05:47:11;11.40;;;4.80;;
22026;SDS011;11177;50.966;10.070;2024-01-06T05:49:41;7.18;;;4.20;;
22026;SDS011;11177;50.966;10.070;2024-01-06T05:52:10;7.80;;;4.07;;
22026;SDS011;11177;50.966;10.070;2024-01-06T05:54:40;6.97;;;4.30;;
22026;SDS011;11177;50.966;10.070;2024-01-06T05:57:09;5.72;;;3.38;;
22026;SDS011;11177;50.966;10.070;2024-01-06T05:59:36;8.32;;;4.03;;
22026;SDS011;11177;50.966;10.070;2024-01-06T06:02:03;6.13;;;3.85;;
22026;SDS011;11177;50.966;10.070;2024-01-06T06:04:30;11.10;;;4.18;;
22026;SDS011;11177;50.966;10.070;2024-01-06T06:06:58;9.00;;;4.03;;
22026;SDS011;11177;50.966;10.070;2024-01-06T06:09:28;8.65;;;3.90;;
22026;SDS011;11177;50.966;10.070;2024-01-06T06:11:56;5.45;;;3.63;;
22026;SDS011;11177;50.966;10.070;2024-01-06T06:14:22;6.78;;;3.50;;
22026;SDS011;11177;50.966;10.070;2024-01-06T06:16:53;7.70;;;4.18;;
22026;SDS011;11177;50.966;10.070;2024-01-06T06:19:20;7.60;;;3.47;;
22026;SDS011;11177;50.966;10.070;2024-01-06T06:21:47;9.60;;;3.42;;
22026;SDS011;11177;50.966;10.070;2024-01-06T06:24:14;6.60;;;3.22;;
22026;SDS011;11177;50.966;10.070;2024-01-06T06:26:41;8.10;;;3.22;;
22026;SDS011;11177;50.966;10.070;2024-01-06T06:29:09;6.78;;;3.60;;
22026;SDS011;11177;50.966;10.070;2024-01-06T06:31:36;10.55;;;3.50;;
22026;SDS011;11177;50.966;10.070;2024-01-06T06:34:03;6.20;;;3.08;;
22026;SDS011;11177;50.966;10.070;2024-01-06T06:36:34;7.57;;;3.30;;
22026;SDS011;11177;50.966;10.070;2024-01-06T06:39:02;6.13;;;3.05;;
22026;SDS011;11177;50.966;10.070;2024-01-06T06:41:30;7.22;;;3.08;;
22026;SDS011;11177;50.966;10.070;2024-01-06T06:43:58;6.50;;;3.03;;
22026;SDS011;11177;50.966;10.070;2024-01-06T06:46:26;4.63;;;3.10;;
22026;SDS011;11177;50.966;10.070;2024-01-06T06:48:56;8.48;;;3.10;;
22026;SDS011;11177;50.966;10.070;2024-01-06T06:51:23;7.20;;;3.00;;
22026;SDS011;11177;50.966;10.070;2024-01-06T06:53:54;4.72;;;2.67;;
22026;SDS011;11177;50.966;10.070;2024-01-06T06:56:21;4.53;;;2.50;;
22026;SDS011;11177;50.966;10.070;2024-01-06T06:58:48;6.82;;;2.85;;
22026;SDS011;11177;50.966;10.070;2024-01-06T07:01:16;5.45;;;2.90;;
22026;SDS011;11177;50.966;10.070;2024-01-06T07:03:43;4.75;;;2.70;;
22026;SDS011;11177;50.966;10.070;2024-01-06T07:06:13;7.05;;;2.92;;
22026;SDS011;11177;50.966;10.070;2024-01-06T07:08:41;6.38;;;2.72;;
22026;SDS011;11177;50.966;10.070;2024-01-06T07:11:08;6.03;;;2.70;;
22026;SDS011;11177;50.966;10.070;2024-01-06T07:13:38;5.15;;;2.13;;
22026;SDS011;11177;50.966;10.070;2024-01-06T07:16:05;5.93;;;2.30;;
22026;SDS011;11177;50.966;10.070;2024-01-06T07:18:44;7.35;;;2.83;;
22026;SDS011;11177;50.966;10.070;2024-01-06T07:21:13;6.07;;;2.63;;
22026;SDS011;11177;50.966;10.070;2024-01-06T07:23:40;6.03;;;4.07;;
22026;SDS011;11177;50.966;10.070;2024-01-06T07:26:07;9.98;;;4.78;;
22026;SDS011;11177;50.966;10.070;2024-01-06T07:28:35;7.10;;;4.85;;
22026;SDS011;11177;50.966;10.070;2024-01-06T07:31:02;14.60;;;6.57;;
22026;SDS011;11177;50.966;10.070;2024-01-06T07:33:30;18.40;;;5.43;;
22026;SDS011;11177;50.966;10.070;2024-01-06T07:35:57;14.45;;;5.55;;
22026;SDS011;11177;50.966;10.070;2024-01-06T07:38:25;9.32;;;4.95;;
22026;SDS011;11177;50.966;10.070;2024-01-06T07:40:52;11.73;;;5.10;;
22026;SDS011;11177;50.966;10.070;2024-01-06T07:43:21;10.38;;;4.97;;
22026;SDS011;11177;50.966;10.070;2024-01-06T07:45:48;14.27;;;4.63;;
22026;SDS011;11177;50.966;10.070;2024-01-06T07:48:17;8.75;;;4.38;;
22026;SDS011;11177;50.966;10.070;2024-01-06T07:50:44;7.85;;;4.38;;
22026;SDS011;11177;50.966;10.070;2024-01-06T07:53:12;7.70;;;4.22;;
22026;SDS011;11177;50.966;10.070;2024-01-06T07:55:40;8.82;;;3.97;;
22026;SDS011;11177;50.966;10.070;2024-01-06T07:58:07;9.45;;;4.70;;
22026;SDS011;11177;50.966;10.070;2024-01-06T08:00:34;7.90;;;4.10;;
22026;SDS011;11177;50.966;10.070;2024-01-06T08:03:02;9.32;;;4.32;;
22026;SDS011;11177;50.966;10.070;2024-01-06T08:05:32;8.68;;;3.80;;
22026;SDS011;11177;50.966;10.070;2024-01-06T08:08:00;9.40;;;4.55;;
22026;SDS011;11177;50.966;10.070;2024-01-06T08:10:30;8.82;;;4.10;;
22026;SDS011;11177;50.966;10.070;2024-01-06T08:12:57;7.25;;;3.90;;
22026;SDS011;11177;50.966;10.070;2024-01-06T08:15:25;7.85;;;3.90;;
22026;SDS011;11177;50.966;10.070;2024-01-06T08:17:53;6.82;;;4.00;;
22026;SDS011;11177;50.966;10.070;2024-01-06T08:20:21;7.60;;;3.90;;
22026;SDS011;11177;50.966;10.070;2024-01-06T08:22:48;7.95;;;4.10;;
22026;SDS011;11177;50.966;10.070;2024-01-06T08:25:16;8.85;;;4.43;;
22026;SDS011;11177;50.966;10.070;2024-01-06T08:27:44;6.82;;;3.80;;
22026;SDS011;11177;50.966;10.070;2024-01-06T08:30:11;7.95;;;4.07;;
22026;SDS011;11177;50.966;10.070;2024-01-06T08:32:39;6.50;;;3.90;;
22026;SDS011;11177;50.966;10.070;2024-01-06T08:35:07;9.20;;;4.13;;
22026;SDS011;11177;50.966;10.070;2024-01-06T08:37:34;9.85;;;4.43;;
22026;SDS011;11177;50.966;10.070;2024-01-06T08:40:02;8.27;;;4.38;;
22026;SDS011;11177;50.966;10.070;2024-01-06T08:42:31;7.40;;;4.47;;
22026;SDS011;11177;50.966;10.070;2024-01-06T08:44:58;12.00;;;4.80;;
22026;SDS011;11177;50.966;10.070;2024-01-06T08:47:25;7.82;;;4.30;;
22026;SDS011;11177;50.966;10.070;2024-01-06T08:49:53;7.85;;;5.05;;
22026;SDS011;11177;50.966;10.070;2024-01-06T08:52:20;12.35;;;4.93;;
22026;SDS011;11177;50.966;10.070;2024-01-06T08:54:47;10.75;;;4.78;;
22026;SDS011;11177;50.966;10.070;2024-01-06T08:57:16;9.32;;;4.38;;
22026;SDS011;11177;50.966;10.070;2024-01-06T08:59:43;8.80;;;4.20;;
22026;SDS011;11177;50.966;10.070;2024-01-06T09:02:12;12.20;;;4.80;;
22026;SDS011;11177;50.966;10.070;2024-01-06T09:04:39;9.32;;;4.78;;
22026;SDS011;11177;50.966;10.070;2024-01-06T09:07:06;9.73;;;4.65;;
22026;SDS011;11177;50.966;10.070;2024-01-06T09:09:33;9.95;;;4.47;;
22026;SDS011;11177;50.966;10.070;2024-01-06T09:12:00;6.90;;;4.50;;
22026;SDS011;11177;50.966;10.070;2024-01-06T09:14:28;6.65;;;4.47;;
22026;SDS011;11177;50.966;10.070;2024-01-06T09:16:55;7.20;;;4.90;;
22026;SDS011;11177;50.966;10.070;2024-01-06T09:19:22;13.57;;;4.90;;
22026;SDS011;11177;50.966;10.070;2024-01-06T09:21:50;8.50;;;5.10;;
22026;SDS011;11177;50.966;10.070;2024-01-06T09:24:17;9.27;;;5.00;;
22026;SDS011;11177;50.966;10.070;2024-01-06T09:26:44;8.98;;;4.80;;
22026;SDS011;11177;50.966;10.070;2024-01-06T09:29:11;9.43;;;5.07;;
22026;SDS011;11177;50.966;10.070;2024-01-06T09:31:38;11.07;;;4.85;;
22026;SDS011;11177;50.966;10.070;2024-01-06T09:34:08;12.00;;;5.22;;
22026;SDS011;11177;50.966;10.070;2024-01-06T09:36:37;10.75;;;5.85;;
22026;SDS011;11177;50.966;10.070;2024-01-06T09:39:08;12.27;;;5.75;;
22026;SDS011;11177;50.966;10.070;2024-01-06T09:41:36;11.98;;;5.63;;
22026;SDS011;11177;50.966;10.070;2024-01-06T09:44:03;8.75;;;4.93;;
22026;SDS011;11177;50.966;10.070;2024-01-06T09:46:30;11.35;;;4.80;;
22026;SDS011;11177;50.966;10.070;2024-01-06T09:48:58;7.53;;;4.40;;
22026;SDS011;11177;50.966;10.070;2024-01-06T09:51:26;8.68;;;4.15;;
22026;SDS011;11177;50.966;10.070;2024-01-06T09:54:00;7.63;;;4.35;;
22026;SDS011;11177;50.966;10.070;2024-01-06T09:56:29;12.43;;;5.03;;
22026;SDS011;11177;50.966;10.070;2024-01-06T09:58:56;8.98;;;5.20;;
22026;SDS011;11177;50.966;10.070;2024-01-06T10:01:23;11.40;;;4.93;;
22026;SDS011;11177;50.966;10.070;2024-01-06T10:03:51;8.88;;;5.13;;
22026;SDS011;11177;50.966;10.070;2024-01-06T10:06:18;12.18;;;5.85;;
22026;SDS011;11177;50.966;10.070;2024-01-06T10:08:48;9.75;;;5.80;;
22026;SDS011;11177;50.966;10.070;2024-01-06T10:11:16;14.57;;;6.80;;
22026;SDS011;11177;50.966;10.070;2024-01-06T10:13:43;10.80;;;6.00;;
22026;SDS011;11177;50.966;10.070;2024-01-06T10:16:11;12.88;;;6.80;;
22026;SDS011;11177;50.966;10.070;2024-01-06T10:18:38;13.82;;;6.65;;
22026;SDS011;11177;50.966;10.070;2024-01-06T10:21:06;10.23;;;6.78;;
22026;SDS011;11177;50.966;10.070;2024-01-06T10:23:33;11.30;;;6.28;;
22026;SDS011;11177;50.966;10.070;2024-01-06T10:26:00;14.13;;;7.70;;
22026;SDS011;11177;50.966;10.070;2024-01-06T10:28:31;11.05;;;6.70;;
22026;SDS011;11177;50.966;10.070;2024-01-06T10:30:59;10.52;;;5.80;;
22026;SDS011;11177;50.966;10.070;2024-01-06T10:33:27;9.57;;;5.32;;
22026;SDS011;11177;50.966;10.070;2024-01-06T10:35:54;8.90;;;5.10;;
22026;SDS011;11177;50.966;10.070;2024-01-06T10:38:25;9.30;;;4.95;;
22026;SDS011;11177;50.966;10.070;2024-01-06T10:41:00;17.23;;;8.98;;
22026;SDS011;11177;50.966;10.070;2024-01-06T10:43:34;18.75;;;9.18;;
22026;SDS011;11177;50.966;10.070;2024-01-06T10:46:04;14.32;;;8.63;;
22026;SDS011;11177;50.966;10.070;2024-01-06T10:48:32;11.88;;;5.30;;
22026;SDS011;11177;50.966;10.070;2024-01-06T10:51:02;10.15;;;5.20;;
22026;SDS011;11177;50.966;10.070;2024-01-06T10:53:35;9.43;;;4.72;;
22026;SDS011;11177;50.966;10.070;2024-01-06T10:56:06;8.30;;;4.63;;
22026;SDS011;11177;50.966;10.070;2024-01-06T10:58:47;12.05;;;4.63;;
22026;SDS011;11177;50.966;10.070;2024-01-06T11:01:21;10.30;;;4.50;;
22026;SDS011;11177;50.966;10.070;2024-01-06T11:03:53;10.52;;;4.30;;
22026;SDS011;11177;50.966;10.070;2024-01-06T11:06:31;11.02;;;4.53;;
22026;SDS011;11177;50.966;10.070;2024-01-06T11:09:22;8.30;;;4.43;;
22026;SDS011;11177;50.966;10.070;2024-01-06T11:11:52;9.55;;;4.65;;
22026;SDS011;11177;50.966;10.070;2024-01-06T11:14:30;9.57;;;5.10;;
22026;SDS011;11177;50.966;10.070;2024-01-06T11:17:02;12.77;;;4.15;;
22026;SDS011;11177;50.966;10.070;2024-01-06T11:19:43;10.10;;;5.30;;
22026;SDS011;11177;50.966;10.070;2024-01-06T11:22:23;9.15;;;5.70;;
22026;SDS011;11177;50.966;10.070;2024-01-06T11:25:13;11.80;;;6.25;;
22026;SDS011;11177;50.966;10.070;2024-01-06T11:27:41;9.13;;;5.50;;
22026;SDS011;11177;50.966;10.070;2024-01-06T11:30:26;12.63;;;5.00;;
22026;SDS011;11177;50.966;10.070;2024-01-06T11:32:56;10.70;;;4.93;;
22026;SDS011;11177;50.966;10.070;2024-01-06T11:35:29;8.90;;;4.43;;
22026;SDS011;11177;50.966;10.070;2024-01-06T11:37:58;10.10;;;5.07;;
22026;SDS011;11177;50.966;10.070;2024-01-06T11:40:31;9.90;;;5.38;;
22026;SDS011;11177;50.966;10.070;2024-01-06T11:43:03;11.20;;;4.50;;
22026;SDS011;11177;50.966;10.070;2024-01-06T11:45:34;8.73;;;4.60;;
22026;SDS011;11177;50.966;10.070;2024-01-06T11:48:03;13.77;;;4.70;;
22026;SDS011;11177;50.966;10.070;2024-01-06T11:50:32;11.27;;;4.70;;
22026;SDS011;11177;50.966;10.070;2024-01-06T11:53:01;10.68;;;5.38;;
22026;SDS011;11177;50.966;10.070;2024-01-06T11:55:30;12.52;;;4.72;;
22026;SDS011;11177;50.966;10.070;2024-01-06T11:58:01;7.10;;;3.80;;
22026;SDS011;11177;50.966;10.070;2024-01-06T12:00:31;11.07;;;4.95;;
22026;SDS011;11177;50.966;10.070;2024-01-06T12:03:03;9.88;;;5.00;;
22026;SDS011;11177;50.966;10.070;2024-01-06T12:05:30;12.32;;;5.40;;
22026;SDS011;11177;50.966;10.070;2024-01-06T12:08:01;14.70;;;5.05;;
22026;SDS011;11177;50.966;10.070;2024-01-06T12:10:31;14.52;;;4.95;;
22026;SDS011;11177;50.966;10.070;2024-01-06T12:13:00;10.50;;;4.75;;
22026;SDS011;11177;50.966;10.070;2024-01-06T12:15:29;13.20;;;5.10;;
22026;SDS011;11177;50.966;10.070;2024-01-06T12:17:59;16.50;;;5.38;;
22026;SDS011;11177;50.966;10.070;2024-01-06T12:20:30;10.98;;;6.10;;
22026;SDS011;11177;50.966;10.070;2024-01-06T12:23:00;13.73;;;6.07;;
22026;SDS011;11177;50.966;10.070;2024-01-06T12:25:28;7.95;;;4.90;;
22026;SDS011;11177;50.966;10.070;2024-01-06T12:27:56;9.70;;;5.63;;
22026;SDS011;11177;50.966;10.070;2024-01-06T12:30:28;9.88;;;5.50;;
22026;SDS011;11177;50.966;10.070;2024-01-06T12:32:57;10.90;;;5.30;;
22026;SDS011;11177;50.966;10.070;2024-01-06T12:35:24;11.18;;;5.55;;
22026;SDS011;11177;50.966;10.070;2024-01-06T12:37:51;10.50;;;5.10;;
22026;SDS011;11177;50.966;10.070;2024-01-06T12:40:18;14.98;;;5.25;;
22026;SDS011;11177;50.966;10.070;2024-01-06T12:43:05;14.57;;;5.38;;
22026;SDS011;11177;50.966;10.070;2024-01-06T12:45:53;10.65;;;4.93;;
22026;SDS011;11177;50.966;10.070;2024-01-06T12:48:41;12.73;;;4.75;;
22026;SDS011;11177;50.966;10.070;2024-01-06T12:51:29;8.57;;;4.03;;
22026;SDS011;11177;50.966;10.070;2024-01-06T12:54:16;9.02;;;4.63;;
22026;SDS011;11177;50.966;10.070;2024-01-06T12:57:03;15.65;;;5.95;;
22026;SDS011;11177;50.966;10.070;2024-01-06T12:59:51;12.38;;;4.32;;
22026;SDS011;11177;50.966;10.070;2024-01-06T13:02:17;10.07;;;3.78;;
22026;SDS011;11177;50.966;10.070;2024-01-06T13:04:45;8.80;;;3.83;;
22026;SDS011;11177;50.966;10.070;2024-01-06T13:07:12;19.35;;;4.60;;
22026;SDS011;11177;50.966;10.070;2024-01-06T13:09:39;8.32;;;3.85;;
22026;SDS011;11177;50.966;10.070;2024-01-06T13:12:06;9.82;;;3.83;;
22026;SDS011;11177;50.966;10.070;2024-01-06T13:14:34;11.57;;;4.07;;
22026;SDS011;11177;50.966;10.070;2024-01-06T13:17:02;8.15;;;4.50;;
22026;SDS011;11177;50.966;10.070;2024-01-06T13:19:30;10.43;;;4.97;;
22026;SDS011;11177;50.966;10.070;2024-01-06T13:21:58;18.13;;;6.90;;
22026;SDS011;11177;50.966;10.070;2024-01-06T13:24:26;12.82;;;5.43;;
22026;SDS011;11177;50.966;10.070;2024-01-06T13:26:53;10.40;;;4.57;;
22026;SDS011;11177;50.966;10.070;2024-01-06T13:29:20;9.13;;;4.35;;
22026;SDS011;11177;50.966;10.070;2024-01-06T13:31:54;10.20;;;3.87;;
22026;SDS011;11177;50.966;10.070;2024-01-06T13:34:22;9.05;;;4.10;;
22026;SDS011;11177;50.966;10.070;2024-01-06T13:36:53;9.65;;;4.55;;
22026;SDS011;11177;50.966;10.070;2024-01-06T13:39:23;6.05;;;4.18;;
22026;SDS011;11177;50.966;10.070;2024-01-06T13:41:51;7.93;;;3.95;;
22026;SDS011;11177;50.966;10.070;2024-01-06T13:44:21;6.97;;;3.80;;
22026;SDS011;11177;50.966;10.070;2024-01-06T13:46:49;8.73;;;4.03;;
22026;SDS011;11177;50.966;10.070;2024-01-06T13:49:18;8.57;;;3.90;;
22026;SDS011;11177;50.966;10.070;2024-01-06T13:51:47;12.15;;;4.53;;
22026;SDS011;11177;50.966;10.070;2024-01-06T13:54:15;8.65;;;5.00;;
22026;SDS011;11177;50.966;10.070;2024-01-06T13:56:45;19.88;;;7.25;;
22026;SDS011;11177;50.966;10.070;2024-01-06T13:59:13;15.40;;;6.30;;
22026;SDS011;11177;50.966;10.070;2024-01-06T14:01:41;8.00;;;4.10;;
22026;SDS011;11177;50.966;10.070;2024-01-06T14:04:09;9.88;;;5.22;;
22026;SDS011;11177;50.966;10.070;2024-01-06T14:06:36;10.85;;;6.07;;
22026;SDS011;11177;50.966;10.070;2024-01-06T14:09:06;8.13;;;4.40;;
22026;SDS011;11177;50.966;10.070;2024-01-06T14:11:33;8.63;;;4.07;;
22026;SDS011;11177;50.966;10.070;2024-01-06T14:14:04;7.65;;;3.80;;
22026;SDS011;11177;50.966;10.070;2024-01-06T14:16:31;10.20;;;3.97;;
22026;SDS011;11177;50.966;10.070;2024-01-06T14:18:59;11.38;;;6.50;;
22026;SDS011;11177;50.966;10.070;2024-01-06T14:21:30;19.40;;;9.73;;
22026;SDS011;11177;50.966;10.070;2024-01-06T14:23:57;12.77;;;6.40;;
22026;SDS011;11177;50.966;10.070;2024-01-06T14:26:25;12.95;;;7.90;;
22026;SDS011;11177;50.966;10.070;2024-01-06T14:28:52;12.80;;;6.70;;
22026;SDS011;11177;50.966;10.070;2024-01-06T14:31:19;15.30;;;6.20;;
22026;SDS011;11177;50.966;10.070;2024-01-06T14:33:47;13.57;;;6.32;;
22026;SDS011;11177;50.966;10.070;2024-01-06T14:36:17;10.57;;;6.28;;
22026;SDS011;11177;50.966;10.070;2024-01-06T14:38:45;17.00;;;8.52;;
22026;SDS011;11177;50.966;10.070;2024-01-06T14:41:12;32.83;;;16.30;;